SAS94B EKCH-EKYT
Flight info
| Callsign | SAS94B |
|---|---|
| Flight time | 0h 33m |
| Altitude | 18000 |
| Route | GOLGA T506 LAPMA L621 AAL |
| Aircraft | A20N/M-SDE2E3FGHIRWXY/LB1 |
Departure
| Time | 2026-05-07 17:26 |
|---|---|
| Airport | Copenhagen Kastrup Airport (EKCH) |
Arrival
| Time | 2026-05-07 18:00 |
|---|---|
| Airport | Aalborg Airport (EKYT) |
| Time | Latitude | Longitude | Altitude | Speed | Heading |
|---|---|---|---|---|---|
| 2026-05-07 17:02 | 55.62654 | 12.65451 | 17 ft | 0 kts | 89° |
| 2026-05-07 17:16 | 55.62654 | 12.65434 | 17 ft | 4 kts | 89° |
| 2026-05-07 17:17 | 55.62653 | 12.65395 | 17 ft | 3 kts | 88° |
| 2026-05-07 17:17 | 55.62648 | 12.65351 | 18 ft | 4 kts | 52° |
| 2026-05-07 17:17 | 55.62628 | 12.65324 | 18 ft | 4 kts | 11° |
| 2026-05-07 17:17 | 55.62603 | 12.65322 | 20 ft | 4 kts | 359° |
| 2026-05-07 17:18 | 55.62596 | 12.65322 | 20 ft | 0 kts | 359° |
| 2026-05-07 17:21 | 55.62600 | 12.65322 | 20 ft | 2 kts | 359° |
| 2026-05-07 17:21 | 55.62636 | 12.65302 | 20 ft | 9 kts | 321° |
| 2026-05-07 17:21 | 55.62608 | 12.65196 | 17 ft | 16 kts | 189° |
| 2026-05-07 17:21 | 55.62468 | 12.65201 | 17 ft | 23 kts | 178° |
| 2026-05-07 17:22 | 55.62307 | 12.65203 | 18 ft | 23 kts | 185° |
| 2026-05-07 17:22 | 55.62161 | 12.65128 | 17 ft | 22 kts | 212° |
| 2026-05-07 17:22 | 55.62024 | 12.64973 | 19 ft | 24 kts | 213° |
| 2026-05-07 17:22 | 55.61889 | 12.64816 | 17 ft | 23 kts | 213° |
| 2026-05-07 17:23 | 55.61748 | 12.64651 | 18 ft | 25 kts | 213° |
| 2026-05-07 17:23 | 55.61597 | 12.64478 | 17 ft | 27 kts | 213° |
| 2026-05-07 17:23 | 55.61473 | 12.64334 | 18 ft | 19 kts | 213° |
| 2026-05-07 17:23 | 55.61354 | 12.64199 | 18 ft | 22 kts | 212° |
| 2026-05-07 17:24 | 55.61217 | 12.64043 | 17 ft | 25 kts | 213° |
| 2026-05-07 17:24 | 55.61071 | 12.63875 | 18 ft | 26 kts | 213° |
| 2026-05-07 17:24 | 55.60917 | 12.63696 | 18 ft | 27 kts | 213° |
| 2026-05-07 17:24 | 55.60765 | 12.63634 | 17 ft | 23 kts | 127° |
| 2026-05-07 17:25 | 55.60686 | 12.63847 | 20 ft | 7 kts | 82° |
| 2026-05-07 17:25 | 55.60704 | 12.63914 | 18 ft | 0 kts | 44° |
| 2026-05-07 17:25 | 55.60710 | 12.63923 | 20 ft | 6 kts | 44° |
| 2026-05-07 17:26 | 55.60938 | 12.64271 | 19 ft | 80 kts | 40° |
| 2026-05-07 17:26 | 55.61508 | 12.65154 | 16 ft | 135 kts | 41° |
| 2026-05-07 17:26 | 55.62311 | 12.66372 | 216 ft | 162 kts | 39° |
| 2026-05-07 17:26 | 55.63149 | 12.67672 | 902 ft | 158 kts | 40° |
| 2026-05-07 17:27 | 55.63972 | 12.68960 | 1587 ft | 158 kts | 40° |
| 2026-05-07 17:27 | 55.64810 | 12.70288 | 2135 ft | 169 kts | 40° |
| 2026-05-07 17:27 | 55.65809 | 12.71521 | 2510 ft | 184 kts | 16° |
| 2026-05-07 17:27 | 55.67140 | 12.71517 | 2877 ft | 206 kts | 340° |
| 2026-05-07 17:28 | 55.68373 | 12.70012 | 3421 ft | 230 kts | 313° |
| 2026-05-07 17:28 | 55.69400 | 12.67661 | 4107 ft | 251 kts | 306° |
| 2026-05-07 17:28 | 55.70392 | 12.65076 | 5180 ft | 255 kts | 306° |
| 2026-05-07 17:28 | 55.71431 | 12.62491 | 6218 ft | 261 kts | 307° |
| 2026-05-07 17:29 | 55.72549 | 12.59895 | 7193 ft | 268 kts | 310° |
| 2026-05-07 17:29 | 55.73722 | 12.57296 | 8191 ft | 274 kts | 310° |
| 2026-05-07 17:29 | 55.74948 | 12.54644 | 9147 ft | 281 kts | 311° |
| 2026-05-07 17:29 | 55.76205 | 12.51943 | 10139 ft | 287 kts | 311° |
| 2026-05-07 17:30 | 55.77510 | 12.49140 | 10793 ft | 305 kts | 310° |
| 2026-05-07 17:30 | 55.78890 | 12.46169 | 11203 ft | 327 kts | 310° |
| 2026-05-07 17:30 | 55.80367 | 12.42977 | 11846 ft | 339 kts | 310° |
| 2026-05-07 17:30 | 55.81871 | 12.39714 | 12796 ft | 342 kts | 309° |
| 2026-05-07 17:31 | 55.83386 | 12.36422 | 13724 ft | 346 kts | 309° |
| 2026-05-07 17:31 | 55.84917 | 12.33090 | 14571 ft | 349 kts | 309° |
| 2026-05-07 17:31 | 55.86461 | 12.29727 | 15411 ft | 353 kts | 309° |
| 2026-05-07 17:31 | 55.88019 | 12.26328 | 16227 ft | 356 kts | 309° |
| 2026-05-07 17:32 | 55.89590 | 12.22896 | 17088 ft | 358 kts | 308° |
| 2026-05-07 17:32 | 55.91170 | 12.19440 | 17805 ft | 363 kts | 308° |
| 2026-05-07 17:32 | 55.92776 | 12.15921 | 18072 ft | 366 kts | 308° |
| 2026-05-07 17:32 | 55.93840 | 12.13585 | 18126 ft | 367 kts | 308° |
| 2026-05-07 17:33 | 55.95989 | 12.08861 | 18130 ft | 366 kts | 308° |
| 2026-05-07 17:33 | 55.97591 | 12.05334 | 18129 ft | 365 kts | 308° |
| 2026-05-07 17:33 | 55.99192 | 12.01804 | 18136 ft | 366 kts | 308° |
| 2026-05-07 17:33 | 56.00790 | 11.98273 | 18130 ft | 366 kts | 308° |
| 2026-05-07 17:34 | 56.02396 | 11.94722 | 18126 ft | 367 kts | 308° |
| 2026-05-07 17:34 | 56.03997 | 11.91175 | 18127 ft | 367 kts | 308° |
| 2026-05-07 17:34 | 56.05597 | 11.87624 | 18127 ft | 367 kts | 308° |
| 2026-05-07 17:34 | 56.07196 | 11.84072 | 18127 ft | 367 kts | 308° |
| 2026-05-07 17:35 | 56.08254 | 11.81720 | 18127 ft | 367 kts | 308° |
| 2026-05-07 17:35 | 56.09851 | 11.78161 | 18127 ft | 367 kts | 308° |
| 2026-05-07 17:35 | 56.11448 | 11.74601 | 18127 ft | 367 kts | 308° |
| 2026-05-07 17:35 | 56.13042 | 11.71040 | 18127 ft | 367 kts | 308° |
| 2026-05-07 17:36 | 56.14636 | 11.67472 | 18127 ft | 367 kts | 308° |
| 2026-05-07 17:36 | 56.16231 | 11.63900 | 18124 ft | 367 kts | 308° |
| 2026-05-07 17:36 | 56.18340 | 11.59167 | 18124 ft | 367 kts | 308° |
| 2026-05-07 17:36 | 56.19417 | 11.56747 | 18124 ft | 367 kts | 308° |
| 2026-05-07 17:37 | 56.21008 | 11.53167 | 18121 ft | 367 kts | 308° |
| 2026-05-07 17:37 | 56.22596 | 11.49586 | 18129 ft | 367 kts | 308° |
| 2026-05-07 17:37 | 56.24186 | 11.46000 | 18123 ft | 368 kts | 308° |
| 2026-05-07 17:37 | 56.25780 | 11.42396 | 18124 ft | 367 kts | 308° |
| 2026-05-07 17:38 | 56.27367 | 11.38803 | 18127 ft | 367 kts | 308° |
| 2026-05-07 17:38 | 56.28957 | 11.35199 | 18124 ft | 368 kts | 308° |
| 2026-05-07 17:38 | 56.30543 | 11.31598 | 18124 ft | 367 kts | 308° |
| 2026-05-07 17:38 | 56.32130 | 11.27990 | 18124 ft | 367 kts | 308° |
| 2026-05-07 17:39 | 56.33716 | 11.24377 | 18125 ft | 367 kts | 308° |
| 2026-05-07 17:39 | 56.35299 | 11.20767 | 18125 ft | 367 kts | 307° |
| 2026-05-07 17:39 | 56.36879 | 11.17158 | 18125 ft | 367 kts | 307° |
| 2026-05-07 17:39 | 56.38460 | 11.13542 | 18125 ft | 367 kts | 307° |
| 2026-05-07 17:40 | 56.40041 | 11.09919 | 18128 ft | 367 kts | 307° |
| 2026-05-07 17:40 | 56.41618 | 11.06301 | 18126 ft | 367 kts | 307° |
| 2026-05-07 17:40 | 56.43195 | 11.02678 | 18126 ft | 367 kts | 307° |
| 2026-05-07 17:40 | 56.44773 | 10.99048 | 18126 ft | 367 kts | 307° |
| 2026-05-07 17:41 | 56.46348 | 10.95416 | 18038 ft | 367 kts | 307° |
| 2026-05-07 17:41 | 56.47915 | 10.91800 | 17771 ft | 364 kts | 307° |
| 2026-05-07 17:41 | 56.49448 | 10.88256 | 17316 ft | 361 kts | 307° |
| 2026-05-07 17:41 | 56.50991 | 10.84684 | 16738 ft | 359 kts | 307° |
| 2026-05-07 17:42 | 56.52519 | 10.81141 | 16160 ft | 356 kts | 307° |
| 2026-05-07 17:42 | 56.54058 | 10.77569 | 15588 ft | 353 kts | 307° |
| 2026-05-07 17:42 | 56.55542 | 10.74118 | 15075 ft | 350 kts | 307° |
| 2026-05-07 17:42 | 56.57030 | 10.70654 | 14527 ft | 347 kts | 307° |
| 2026-05-07 17:43 | 56.58507 | 10.67208 | 14001 ft | 344 kts | 307° |
| 2026-05-07 17:43 | 56.59989 | 10.63748 | 13436 ft | 341 kts | 307° |
| 2026-05-07 17:43 | 56.61429 | 10.60381 | 13167 ft | 337 kts | 307° |
| 2026-05-07 17:43 | 56.62882 | 10.56977 | 13123 ft | 343 kts | 307° |
| 2026-05-07 17:44 | 56.64342 | 10.53553 | 13123 ft | 343 kts | 307° |
| 2026-05-07 17:44 | 56.65803 | 10.50122 | 13116 ft | 343 kts | 307° |
| 2026-05-07 17:44 | 56.67259 | 10.46700 | 13126 ft | 342 kts | 307° |
| 2026-05-07 17:44 | 56.68695 | 10.43319 | 13114 ft | 341 kts | 307° |
| 2026-05-07 17:45 | 56.70133 | 10.39929 | 12930 ft | 337 kts | 307° |
| 2026-05-07 17:45 | 56.71582 | 10.36507 | 12374 ft | 337 kts | 307° |
| 2026-05-07 17:45 | 56.72992 | 10.33168 | 11795 ft | 337 kts | 307° |
| 2026-05-07 17:45 | 56.74438 | 10.29744 | 11235 ft | 335 kts | 307° |
| 2026-05-07 17:46 | 56.75832 | 10.26438 | 10705 ft | 333 kts | 307° |
| 2026-05-07 17:46 | 56.77235 | 10.23106 | 10361 ft | 325 kts | 307° |
| 2026-05-07 17:46 | 56.78582 | 10.19903 | 10213 ft | 311 kts | 307° |
| 2026-05-07 17:46 | 56.79872 | 10.16832 | 10100 ft | 298 kts | 307° |
| 2026-05-07 17:47 | 56.81106 | 10.13890 | 9920 ft | 287 kts | 307° |
| 2026-05-07 17:47 | 56.82327 | 10.10975 | 9538 ft | 284 kts | 307° |
| 2026-05-07 17:47 | 56.83502 | 10.08170 | 9163 ft | 280 kts | 307° |
| 2026-05-07 17:47 | 56.84680 | 10.05355 | 8772 ft | 278 kts | 307° |
| 2026-05-07 17:48 | 56.85847 | 10.02561 | 8417 ft | 274 kts | 306° |
| 2026-05-07 17:48 | 56.86998 | 9.99801 | 8046 ft | 272 kts | 306° |
| 2026-05-07 17:48 | 56.88169 | 9.96989 | 7530 ft | 276 kts | 306° |
| 2026-05-07 17:48 | 56.89324 | 9.94212 | 7165 ft | 273 kts | 306° |
| 2026-05-07 17:49 | 56.90471 | 9.91455 | 6795 ft | 271 kts | 306° |
| 2026-05-07 17:49 | 56.91610 | 9.88711 | 6416 ft | 270 kts | 306° |
| 2026-05-07 17:49 | 56.92739 | 9.85985 | 6032 ft | 268 kts | 306° |
| 2026-05-07 17:49 | 56.93860 | 9.83276 | 5681 ft | 265 kts | 305° |
| 2026-05-07 17:50 | 56.94948 | 9.80648 | 5347 ft | 262 kts | 305° |
| 2026-05-07 17:50 | 56.96041 | 9.78002 | 5171 ft | 263 kts | 305° |
| 2026-05-07 17:50 | 56.97147 | 9.75317 | 5121 ft | 263 kts | 306° |
| 2026-05-07 17:50 | 56.98012 | 9.72438 | 4920 ft | 257 kts | 283° |
| 2026-05-07 17:51 | 56.98250 | 9.69205 | 4546 ft | 255 kts | 274° |
| 2026-05-07 17:51 | 56.98403 | 9.65965 | 4102 ft | 257 kts | 274° |
| 2026-05-07 17:51 | 56.98548 | 9.62703 | 3702 ft | 257 kts | 274° |
| 2026-05-07 17:51 | 56.98685 | 9.59439 | 3348 ft | 255 kts | 274° |
| 2026-05-07 17:52 | 56.98815 | 9.56206 | 3057 ft | 252 kts | 274° |
| 2026-05-07 17:52 | 56.98945 | 9.52943 | 2993 ft | 259 kts | 274° |
| 2026-05-07 17:52 | 56.99197 | 9.49741 | 2986 ft | 247 kts | 290° |
| 2026-05-07 17:52 | 57.00130 | 9.47260 | 2988 ft | 231 kts | 321° |
| 2026-05-07 17:53 | 57.01530 | 9.46145 | 2988 ft | 213 kts | 352° |
| 2026-05-07 17:53 | 57.02965 | 9.45864 | 3000 ft | 204 kts | 354° |
| 2026-05-07 17:53 | 57.04374 | 9.45668 | 2990 ft | 204 kts | 354° |
| 2026-05-07 17:53 | 57.05790 | 9.45599 | 2984 ft | 202 kts | 7° |
| 2026-05-07 17:54 | 57.06995 | 9.46820 | 2990 ft | 201 kts | 52° |
| 2026-05-07 17:54 | 57.07389 | 9.49067 | 2995 ft | 175 kts | 88° |
| 2026-05-07 17:54 | 57.07412 | 9.51114 | 2982 ft | 145 kts | 90° |
| 2026-05-07 17:54 | 57.07455 | 9.52888 | 2997 ft | 140 kts | 87° |
| 2026-05-07 17:55 | 57.07541 | 9.54637 | 2991 ft | 136 kts | 84° |
| 2026-05-07 17:55 | 57.07649 | 9.56376 | 2958 ft | 137 kts | 84° |
| 2026-05-07 17:55 | 57.07758 | 9.58093 | 2806 ft | 135 kts | 84° |
| 2026-05-07 17:55 | 57.07867 | 9.59793 | 2625 ft | 133 kts | 84° |
| 2026-05-07 17:56 | 57.07974 | 9.61458 | 2457 ft | 130 kts | 85° |
| 2026-05-07 17:56 | 57.08079 | 9.63101 | 2280 ft | 128 kts | 85° |
| 2026-05-07 17:56 | 57.08182 | 9.64711 | 2107 ft | 126 kts | 85° |
| 2026-05-07 17:56 | 57.08284 | 9.66307 | 1945 ft | 127 kts | 85° |
| 2026-05-07 17:57 | 57.08385 | 9.67876 | 1765 ft | 122 kts | 86° |
| 2026-05-07 17:57 | 57.08451 | 9.68923 | 1657 ft | 126 kts | 86° |
| 2026-05-07 17:57 | 57.08585 | 9.71011 | 1425 ft | 122 kts | 86° |
| 2026-05-07 17:57 | 57.08685 | 9.72587 | 1257 ft | 124 kts | 85° |
| 2026-05-07 17:58 | 57.08786 | 9.74163 | 1091 ft | 123 kts | 85° |
| 2026-05-07 17:58 | 57.08885 | 9.75708 | 907 ft | 124 kts | 85° |
| 2026-05-07 17:58 | 57.08985 | 9.77268 | 736 ft | 123 kts | 85° |
| 2026-05-07 17:58 | 57.09080 | 9.78783 | 541 ft | 119 kts | 84° |
| 2026-05-07 17:59 | 57.09195 | 9.80280 | 381 ft | 119 kts | 85° |
| 2026-05-07 17:59 | 57.09270 | 9.81788 | 214 ft | 117 kts | 82° |
| 2026-05-07 17:59 | 57.09367 | 9.83299 | 45 ft | 121 kts | 85° |
| 2026-05-07 17:59 | 57.09454 | 9.84723 | 19 ft | 93 kts | 83° |
| 2026-05-07 18:00 | 57.09516 | 9.85621 | 18 ft | 50 kts | 83° |
| 2026-05-07 18:00 | 57.09546 | 9.86109 | 20 ft | 27 kts | 84° |
| 2026-05-07 18:00 | 57.09571 | 9.86476 | 20 ft | 26 kts | 82° |
| 2026-05-07 18:00 | 57.09563 | 9.86755 | 20 ft | 15 kts | 139° |
| 2026-05-07 18:01 | 57.09486 | 9.86773 | 19 ft | 8 kts | 172° |
| 2026-05-07 18:01 | 57.09473 | 9.86776 | 19 ft | 0 kts | 173° |
| 2026-05-07 18:01 | 57.09449 | 9.86781 | 19 ft | 9 kts | 173° |
| 2026-05-07 18:01 | 57.09389 | 9.86669 | 18 ft | 20 kts | 261° |
| 2026-05-07 18:02 | 57.09349 | 9.86050 | 18 ft | 23 kts | 264° |
| 2026-05-07 18:02 | 57.09299 | 9.85944 | 17 ft | 5 kts | 159° |
| 2026-05-07 18:02 | 57.09262 | 9.86005 | 18 ft | 14 kts | 141° |
| 2026-05-07 18:03 | 57.09155 | 9.86158 | 18 ft | 23 kts | 142° |
| 2026-05-07 18:03 | 57.09027 | 9.86338 | 18 ft | 23 kts | 142° |
| 2026-05-07 18:03 | 57.08905 | 9.86516 | 18 ft | 23 kts | 142° |
| 2026-05-07 18:03 | 57.08782 | 9.86692 | 18 ft | 22 kts | 142° |
| 2026-05-07 18:04 | 57.08715 | 9.86873 | 18 ft | 6 kts | 65° |
| 2026-05-07 18:04 | 57.08738 | 9.86927 | 18 ft | 0 kts | 56° |